sensor_id;sensor_type;location;lat;lon;timestamp;temperature;humidity
19952;DHT22;10137;49.406;19.484;2022-09-30T00:01:29;9.20;99.90
19952;DHT22;10137;49.406;19.484;2022-09-30T00:03:58;9.20;99.90
19952;DHT22;10137;49.406;19.484;2022-09-30T00:06:28;9.20;99.90
19952;DHT22;10137;49.406;19.484;2022-09-30T00:08:57;9.20;99.90
19952;DHT22;10137;49.406;19.484;2022-09-30T00:11:27;9.20;99.90
19952;DHT22;10137;49.406;19.484;2022-09-30T00:13:57;9.20;99.90
19952;DHT22;10137;49.406;19.484;2022-09-30T00:16:28;9.20;99.90
19952;DHT22;10137;49.406;19.484;2022-09-30T00:18:57;9.20;99.90
19952;DHT22;10137;49.406;19.484;2022-09-30T00:21:26;9.20;99.90
19952;DHT22;10137;49.406;19.484;2022-09-30T00:23:55;9.30;99.90
19952;DHT22;10137;49.406;19.484;2022-09-30T00:26:24;9.30;99.90
19952;DHT22;10137;49.406;19.484;2022-09-30T00:28:53;9.30;99.90
19952;DHT22;10137;49.406;19.484;2022-09-30T00:31:32;9.30;99.90
19952;DHT22;10137;49.406;19.484;2022-09-30T00:34:01;9.20;99.90
19952;DHT22;10137;49.406;19.484;2022-09-30T00:36:39;9.20;99.90
19952;DHT22;10137;49.406;19.484;2022-09-30T00:39:12;9.20;99.90
19952;DHT22;10137;49.406;19.484;2022-09-30T00:41:40;9.20;99.90
19952;DHT22;10137;49.406;19.484;2022-09-30T00:47:52;9.20;99.90
19952;DHT22;10137;49.406;19.484;2022-09-30T00:50:34;9.20;99.90
19952;DHT22;10137;49.406;19.484;2022-09-30T00:53:07;9.20;99.90
19952;DHT22;10137;49.406;19.484;2022-09-30T00:55:44;9.10;99.90
19952;DHT22;10137;49.406;19.484;2022-09-30T00:58:17;9.20;99.90
19952;DHT22;10137;49.406;19.484;2022-09-30T01:00:46;9.20;99.90
19952;DHT22;10137;49.406;19.484;2022-09-30T01:03:16;9.20;99.90
19952;DHT22;10137;49.406;19.484;2022-09-30T01:05:45;9.10;99.90
19952;DHT22;10137;49.406;19.484;2022-09-30T01:08:13;9.20;99.90
19952;DHT22;10137;49.406;19.484;2022-09-30T01:10:44;9.10;99.90
19952;DHT22;10137;49.406;19.484;2022-09-30T01:13:12;9.10;99.90
19952;DHT22;10137;49.406;19.484;2022-09-30T01:15:59;9.10;99.90
19952;DHT22;10137;49.406;19.484;2022-09-30T01:18:44;9.00;99.90
19952;DHT22;10137;49.406;19.484;2022-09-30T01:21:39;9.10;99.90
19952;DHT22;10137;49.406;19.484;2022-09-30T01:24:29;9.10;99.90
19952;DHT22;10137;49.406;19.484;2022-09-30T01:27:17;9.10;99.90
19952;DHT22;10137;49.406;19.484;2022-09-30T01:30:06;9.00;99.90
19952;DHT22;10137;49.406;19.484;2022-09-30T01:35:53;9.10;99.90
19952;DHT22;10137;49.406;19.484;2022-09-30T01:38:27;9.10;99.90
19952;DHT22;10137;49.406;19.484;2022-09-30T01:41:03;9.10;99.90
19952;DHT22;10137;49.406;19.484;2022-09-30T01:43:40;9.10;99.90
19952;DHT22;10137;49.406;19.484;2022-09-30T01:46:20;9.00;99.90
19952;DHT22;10137;49.406;19.484;2022-09-30T01:48:57;9.00;99.90
19952;DHT22;10137;49.406;19.484;2022-09-30T01:51:31;9.00;99.90
19952;DHT22;10137;49.406;19.484;2022-09-30T01:54:04;9.00;99.90
19952;DHT22;10137;49.406;19.484;2022-09-30T01:56:40;9.00;99.90
19952;DHT22;10137;49.406;19.484;2022-09-30T01:59:15;9.00;99.90
19952;DHT22;10137;49.406;19.484;2022-09-30T02:01:48;9.00;99.90
19952;DHT22;10137;49.406;19.484;2022-09-30T02:04:24;9.00;99.90
19952;DHT22;10137;49.406;19.484;2022-09-30T02:06:59;9.00;99.90
19952;DHT22;10137;49.406;19.484;2022-09-30T02:09:31;9.00;99.90
19952;DHT22;10137;49.406;19.484;2022-09-30T02:12:04;9.00;99.90
19952;DHT22;10137;49.406;19.484;2022-09-30T02:14:38;9.00;99.90
19952;DHT22;10137;49.406;19.484;2022-09-30T02:17:11;9.00;99.90
19952;DHT22;10137;49.406;19.484;2022-09-30T02:19:45;9.00;99.90
19952;DHT22;10137;49.406;19.484;2022-09-30T02:22:18;9.00;99.90
19952;DHT22;10137;49.406;19.484;2022-09-30T02:24:50;9.00;99.90
19952;DHT22;10137;49.406;19.484;2022-09-30T02:27:23;9.00;99.90
19952;DHT22;10137;49.406;19.484;2022-09-30T02:29:56;9.00;99.90
19952;DHT22;10137;49.406;19.484;2022-09-30T02:32:29;9.00;99.90
19952;DHT22;10137;49.406;19.484;2022-09-30T02:35:02;9.00;99.90
19952;DHT22;10137;49.406;19.484;2022-09-30T02:37:34;8.90;99.90
19952;DHT22;10137;49.406;19.484;2022-09-30T02:40:07;8.90;99.90
19952;DHT22;10137;49.406;19.484;2022-09-30T02:42:38;8.90;99.90
19952;DHT22;10137;49.406;19.484;2022-09-30T02:45:10;8.90;99.90
19952;DHT22;10137;49.406;19.484;2022-09-30T02:47:48;9.00;99.90
19952;DHT22;10137;49.406;19.484;2022-09-30T02:50:30;8.90;99.90
19952;DHT22;10137;49.406;19.484;2022-09-30T02:53:10;8.90;99.90
19952;DHT22;10137;49.406;19.484;2022-09-30T02:55:50;8.90;99.90
19952;DHT22;10137;49.406;19.484;2022-09-30T02:58:22;9.00;99.90
19952;DHT22;10137;49.406;19.484;2022-09-30T03:00:53;9.00;99.90
19952;DHT22;10137;49.406;19.484;2022-09-30T03:03:25;9.00;99.90
19952;DHT22;10137;49.406;19.484;2022-09-30T03:05:59;9.00;99.90
19952;DHT22;10137;49.406;19.484;2022-09-30T03:08:28;8.90;99.90
19952;DHT22;10137;49.406;19.484;2022-09-30T03:10:56;8.90;99.90
19952;DHT22;10137;49.406;19.484;2022-09-30T03:13:46;9.00;99.90
19952;DHT22;10137;49.406;19.484;2022-09-30T03:16:26;8.90;99.90
19952;DHT22;10137;49.406;19.484;2022-09-30T03:19:13;9.00;99.90
19952;DHT22;10137;49.406;19.484;2022-09-30T03:22:01;8.90;99.90
19952;DHT22;10137;49.406;19.484;2022-09-30T03:24:44;8.90;99.90
19952;DHT22;10137;49.406;19.484;2022-09-30T03:27:21;9.00;99.90
19952;DHT22;10137;49.406;19.484;2022-09-30T03:29:57;9.00;99.90
19952;DHT22;10137;49.406;19.484;2022-09-30T03:35:28;9.00;99.90
19952;DHT22;10137;49.406;19.484;2022-09-30T03:38:02;9.00;99.90
19952;DHT22;10137;49.406;19.484;2022-09-30T03:40:41;9.00;99.90
19952;DHT22;10137;49.406;19.484;2022-09-30T03:43:18;8.90;99.90
19952;DHT22;10137;49.406;19.484;2022-09-30T03:45:51;9.00;99.90
19952;DHT22;10137;49.406;19.484;2022-09-30T03:48:22;8.90;99.90
19952;DHT22;10137;49.406;19.484;2022-09-30T03:50:53;9.00;99.90
19952;DHT22;10137;49.406;19.484;2022-09-30T03:53:23;9.00;99.90
19952;DHT22;10137;49.406;19.484;2022-09-30T03:55:52;9.00;99.90
19952;DHT22;10137;49.406;19.484;2022-09-30T03:58:21;9.00;99.90
19952;DHT22;10137;49.406;19.484;2022-09-30T04:00:51;9.00;99.90
19952;DHT22;10137;49.406;19.484;2022-09-30T04:03:20;9.00;99.90
19952;DHT22;10137;49.406;19.484;2022-09-30T04:05:49;9.00;99.90
19952;DHT22;10137;49.406;19.484;2022-09-30T04:08:17;9.00;99.90
19952;DHT22;10137;49.406;19.484;2022-09-30T04:10:51;9.00;99.90
19952;DHT22;10137;49.406;19.484;2022-09-30T04:13:19;9.00;99.90
19952;DHT22;10137;49.406;19.484;2022-09-30T04:15:52;9.00;99.90
19952;DHT22;10137;49.406;19.484;2022-09-30T04:18:21;9.00;99.90
19952;DHT22;10137;49.406;19.484;2022-09-30T04:20:49;9.00;99.90
19952;DHT22;10137;49.406;19.484;2022-09-30T04:23:17;9.00;99.90
19952;DHT22;10137;49.406;19.484;2022-09-30T04:25:52;8.90;99.90
19952;DHT22;10137;49.406;19.484;2022-09-30T04:28:20;8.90;99.90
19952;DHT22;10137;49.406;19.484;2022-09-30T04:30:49;9.00;99.90
19952;DHT22;10137;49.406;19.484;2022-09-30T04:33:17;9.00;99.90
19952;DHT22;10137;49.406;19.484;2022-09-30T04:35:45;9.00;99.90
19952;DHT22;10137;49.406;19.484;2022-09-30T04:38:13;9.00;99.90
19952;DHT22;10137;49.406;19.484;2022-09-30T04:40:41;9.00;99.90
19952;DHT22;10137;49.406;19.484;2022-09-30T04:43:11;9.00;99.90
19952;DHT22;10137;49.406;19.484;2022-09-30T04:45:42;9.00;99.90
19952;DHT22;10137;49.406;19.484;2022-09-30T04:48:10;9.00;99.90
19952;DHT22;10137;49.406;19.484;2022-09-30T04:50:39;9.00;99.90
19952;DHT22;10137;49.406;19.484;2022-09-30T04:53:07;9.00;99.90
19952;DHT22;10137;49.406;19.484;2022-09-30T04:55:34;9.00;99.90
19952;DHT22;10137;49.406;19.484;2022-09-30T04:58:02;9.10;99.90
19952;DHT22;10137;49.406;19.484;2022-09-30T05:00:34;9.10;99.90
19952;DHT22;10137;49.406;19.484;2022-09-30T05:03:02;9.10;99.90
19952;DHT22;10137;49.406;19.484;2022-09-30T05:05:31;9.20;99.90
19952;DHT22;10137;49.406;19.484;2022-09-30T05:08:02;9.10;99.90
19952;DHT22;10137;49.406;19.484;2022-09-30T05:10:31;9.20;99.90
19952;DHT22;10137;49.406;19.484;2022-09-30T05:13:00;9.20;99.90
19952;DHT22;10137;49.406;19.484;2022-09-30T05:15:34;9.20;99.90
19952;DHT22;10137;49.406;19.484;2022-09-30T05:18:06;9.10;99.90
19952;DHT22;10137;49.406;19.484;2022-09-30T05:20:34;9.20;99.90
19952;DHT22;10137;49.406;19.484;2022-09-30T05:23:02;9.20;99.90
19952;DHT22;10137;49.406;19.484;2022-09-30T05:25:34;9.20;99.90
19952;DHT22;10137;49.406;19.484;2022-09-30T05:28:03;9.20;99.90
19952;DHT22;10137;49.406;19.484;2022-09-30T05:30:33;9.20;99.90
19952;DHT22;10137;49.406;19.484;2022-09-30T05:33:00;9.20;99.90
19952;DHT22;10137;49.406;19.484;2022-09-30T05:35:27;9.30;99.90
19952;DHT22;10137;49.406;19.484;2022-09-30T05:37:55;9.30;99.90
19952;DHT22;10137;49.406;19.484;2022-09-30T05:40:25;9.30;99.90
19952;DHT22;10137;49.406;19.484;2022-09-30T05:42:52;9.30;99.90
19952;DHT22;10137;49.406;19.484;2022-09-30T05:45:19;9.40;99.90
19952;DHT22;10137;49.406;19.484;2022-09-30T05:47:51;9.40;99.90
19952;DHT22;10137;49.406;19.484;2022-09-30T05:50:19;9.40;99.90
19952;DHT22;10137;49.406;19.484;2022-09-30T05:52:48;9.40;99.90
19952;DHT22;10137;49.406;19.484;2022-09-30T05:55:16;9.40;99.90
19952;DHT22;10137;49.406;19.484;2022-09-30T05:57:47;9.40;99.90
19952;DHT22;10137;49.406;19.484;2022-09-30T06:00:17;9.40;99.90
19952;DHT22;10137;49.406;19.484;2022-09-30T06:02:51;9.50;99.90
19952;DHT22;10137;49.406;19.484;2022-09-30T06:05:18;9.50;99.90
19952;DHT22;10137;49.406;19.484;2022-09-30T06:07:46;9.50;99.90
19952;DHT22;10137;49.406;19.484;2022-09-30T06:10:16;9.50;99.90
19952;DHT22;10137;49.406;19.484;2022-09-30T06:12:43;9.50;99.90
19952;DHT22;10137;49.406;19.484;2022-09-30T06:15:10;9.50;99.90
19952;DHT22;10137;49.406;19.484;2022-09-30T06:17:39;9.50;99.90
19952;DHT22;10137;49.406;19.484;2022-09-30T06:20:11;9.50;99.90
19952;DHT22;10137;49.406;19.484;2022-09-30T06:22:39;9.50;99.90
19952;DHT22;10137;49.406;19.484;2022-09-30T06:25:10;9.60;99.90
19952;DHT22;10137;49.406;19.484;2022-09-30T06:28:05;9.60;99.90
19952;DHT22;10137;49.406;19.484;2022-09-30T06:30:43;9.60;99.90
19952;DHT22;10137;49.406;19.484;2022-09-30T06:33:13;9.60;99.90
19952;DHT22;10137;49.406;19.484;2022-09-30T06:35:43;9.60;99.90
19952;DHT22;10137;49.406;19.484;2022-09-30T06:38:13;9.60;99.90
19952;DHT22;10137;49.406;19.484;2022-09-30T06:40:42;9.70;99.90
19952;DHT22;10137;49.406;19.484;2022-09-30T06:43:11;9.70;99.90
19952;DHT22;10137;49.406;19.484;2022-09-30T06:45:44;9.80;99.90
19952;DHT22;10137;49.406;19.484;2022-09-30T06:48:12;9.80;99.90
19952;DHT22;10137;49.406;19.484;2022-09-30T06:50:43;9.70;99.90
19952;DHT22;10137;49.406;19.484;2022-09-30T06:53:12;9.70;99.90
19952;DHT22;10137;49.406;19.484;2022-09-30T06:55:43;9.80;99.90
19952;DHT22;10137;49.406;19.484;2022-09-30T06:58:13;9.80;99.90
19952;DHT22;10137;49.406;19.484;2022-09-30T07:00:42;9.80;99.90
19952;DHT22;10137;49.406;19.484;2022-09-30T07:03:21;9.90;99.90
19952;DHT22;10137;49.406;19.484;2022-09-30T07:06:02;9.90;99.90
19952;DHT22;10137;49.406;19.484;2022-09-30T07:08:31;9.90;99.90
19952;DHT22;10137;49.406;19.484;2022-09-30T07:10:58;9.90;99.90
19952;DHT22;10137;49.406;19.484;2022-09-30T07:13:26;9.90;99.90
19952;DHT22;10137;49.406;19.484;2022-09-30T07:15:53;9.90;99.90
19952;DHT22;10137;49.406;19.484;2022-09-30T07:18:21;9.90;99.90
19952;DHT22;10137;49.406;19.484;2022-09-30T07:20:49;9.90;99.90
19952;DHT22;10137;49.406;19.484;2022-09-30T07:23:19;9.90;99.90
19952;DHT22;10137;49.406;19.484;2022-09-30T07:25:52;9.90;99.90
19952;DHT22;10137;49.406;19.484;2022-09-30T07:28:23;9.90;99.90
19952;DHT22;10137;49.406;19.484;2022-09-30T07:30:53;10.00;99.90
19952;DHT22;10137;49.406;19.484;2022-09-30T07:33:23;10.10;99.90
19952;DHT22;10137;49.406;19.484;2022-09-30T07:35:57;10.10;99.90
19952;DHT22;10137;49.406;19.484;2022-09-30T07:38:29;10.30;99.90
19952;DHT22;10137;49.406;19.484;2022-09-30T07:40:59;10.30;99.90
19952;DHT22;10137;49.406;19.484;2022-09-30T07:43:30;10.40;99.90
19952;DHT22;10137;49.406;19.484;2022-09-30T07:46:07;10.40;99.90
19952;DHT22;10137;49.406;19.484;2022-09-30T07:48:37;10.40;99.90
19952;DHT22;10137;49.406;19.484;2022-09-30T07:51:13;10.50;99.90
19952;DHT22;10137;49.406;19.484;2022-09-30T07:53:44;10.50;99.90
19952;DHT22;10137;49.406;19.484;2022-09-30T07:56:13;10.50;99.90
19952;DHT22;10137;49.406;19.484;2022-09-30T07:58:42;10.50;99.90
19952;DHT22;10137;49.406;19.484;2022-09-30T08:01:11;10.50;99.90
19952;DHT22;10137;49.406;19.484;2022-09-30T08:03:41;10.60;99.90
19952;DHT22;10137;49.406;19.484;2022-09-30T08:06:13;10.60;99.90
19952;DHT22;10137;49.406;19.484;2022-09-30T08:08:48;10.60;99.90
19952;DHT22;10137;49.406;19.484;2022-09-30T08:11:17;10.60;99.90
19952;DHT22;10137;49.406;19.484;2022-09-30T08:13:54;10.60;99.90
19952;DHT22;10137;49.406;19.484;2022-09-30T08:16:23;10.60;99.90
19952;DHT22;10137;49.406;19.484;2022-09-30T08:18:53;10.60;99.90
19952;DHT22;10137;49.406;19.484;2022-09-30T08:21:22;10.70;99.90
19952;DHT22;10137;49.406;19.484;2022-09-30T08:23:52;10.70;99.90
19952;DHT22;10137;49.406;19.484;2022-09-30T08:26:20;10.70;99.90
19952;DHT22;10137;49.406;19.484;2022-09-30T08:28:48;10.70;99.90
19952;DHT22;10137;49.406;19.484;2022-09-30T08:31:19;10.80;99.90
19952;DHT22;10137;49.406;19.484;2022-09-30T08:33:48;10.80;99.90
19952;DHT22;10137;49.406;19.484;2022-09-30T08:36:18;10.90;99.90
19952;DHT22;10137;49.406;19.484;2022-09-30T08:38:48;10.80;99.90
19952;DHT22;10137;49.406;19.484;2022-09-30T08:41:36;10.80;99.90
19952;DHT22;10137;49.406;19.484;2022-09-30T08:44:31;10.90;99.90
19952;DHT22;10137;49.406;19.484;2022-09-30T08:47:04;10.90;99.90
19952;DHT22;10137;49.406;19.484;2022-09-30T08:49:48;10.90;99.90
19952;DHT22;10137;49.406;19.484;2022-09-30T08:52:24;10.80;99.90
19952;DHT22;10137;49.406;19.484;2022-09-30T08:54:55;10.90;99.90
19952;DHT22;10137;49.406;19.484;2022-09-30T08:57:31;10.90;99.90
19952;DHT22;10137;49.406;19.484;2022-09-30T09:00:05;10.90;99.90
19952;DHT22;10137;49.406;19.484;2022-09-30T09:02:44;10.90;99.90
19952;DHT22;10137;49.406;19.484;2022-09-30T09:05:27;10.90;99.90
19952;DHT22;10137;49.406;19.484;2022-09-30T09:08:05;10.90;99.90
19952;DHT22;10137;49.406;19.484;2022-09-30T09:10:42;10.90;99.90
19952;DHT22;10137;49.406;19.484;2022-09-30T09:13:31;11.00;99.90
19952;DHT22;10137;49.406;19.484;2022-09-30T09:16:13;11.10;99.90
19952;DHT22;10137;49.406;19.484;2022-09-30T09:19:00;11.10;99.90
19952;DHT22;10137;49.406;19.484;2022-09-30T09:21:37;11.10;99.90
19952;DHT22;10137;49.406;19.484;2022-09-30T09:24:13;11.10;99.90
19952;DHT22;10137;49.406;19.484;2022-09-30T09:26:42;11.20;99.90
19952;DHT22;10137;49.406;19.484;2022-09-30T09:29:35;11.10;99.90
19952;DHT22;10137;49.406;19.484;2022-09-30T09:32:12;11.20;99.90
19952;DHT22;10137;49.406;19.484;2022-09-30T09:34:40;11.20;99.90
19952;DHT22;10137;49.406;19.484;2022-09-30T09:37:16;11.30;99.90
19952;DHT22;10137;49.406;19.484;2022-09-30T09:40:06;11.20;99.90
19952;DHT22;10137;49.406;19.484;2022-09-30T09:42:58;11.30;99.90
19952;DHT22;10137;49.406;19.484;2022-09-30T09:45:37;11.30;99.90
19952;DHT22;10137;49.406;19.484;2022-09-30T09:48:08;11.30;99.90
19952;DHT22;10137;49.406;19.484;2022-09-30T09:50:45;11.30;99.90
19952;DHT22;10137;49.406;19.484;2022-09-30T09:53:39;11.30;99.90
19952;DHT22;10137;49.406;19.484;2022-09-30T09:56:13;11.30;99.90
19952;DHT22;10137;49.406;19.484;2022-09-30T09:59:07;11.30;99.90
19952;DHT22;10137;49.406;19.484;2022-09-30T10:01:46;11.30;99.90
19952;DHT22;10137;49.406;19.484;2022-09-30T10:04:18;11.30;99.90
19952;DHT22;10137;49.406;19.484;2022-09-30T10:06:52;11.20;99.90
19952;DHT22;10137;49.406;19.484;2022-09-30T10:09:29;11.30;99.90
19952;DHT22;10137;49.406;19.484;2022-09-30T10:12:20;11.20;99.90
19952;DHT22;10137;49.406;19.484;2022-09-30T10:14:59;11.30;99.90
19952;DHT22;10137;49.406;19.484;2022-09-30T10:17:37;11.30;99.90
19952;DHT22;10137;49.406;19.484;2022-09-30T10:20:23;11.30;99.90
19952;DHT22;10137;49.406;19.484;2022-09-30T10:23:01;11.40;99.90
19952;DHT22;10137;49.406;19.484;2022-09-30T10:25:30;11.40;99.90
19952;DHT22;10137;49.406;19.484;2022-09-30T10:28:19;11.40;99.90
19952;DHT22;10137;49.406;19.484;2022-09-30T10:30:54;11.40;99.90
19952;DHT22;10137;49.406;19.484;2022-09-30T10:33:35;11.40;99.90
19952;DHT22;10137;49.406;19.484;2022-09-30T10:36:14;11.40;99.90
19952;DHT22;10137;49.406;19.484;2022-09-30T10:38:55;11.40;99.90
19952;DHT22;10137;49.406;19.484;2022-09-30T10:41:25;11.40;99.90
19952;DHT22;10137;49.406;19.484;2022-09-30T10:43:55;11.40;99.90
19952;DHT22;10137;49.406;19.484;2022-09-30T10:46:27;11.50;99.90
19952;DHT22;10137;49.406;19.484;2022-09-30T10:48:58;11.50;99.90
19952;DHT22;10137;49.406;19.484;2022-09-30T10:51:31;11.60;99.90
19952;DHT22;10137;49.406;19.484;2022-09-30T10:54:05;11.50;99.90
19952;DHT22;10137;49.406;19.484;2022-09-30T10:56:39;11.60;99.90
19952;DHT22;10137;49.406;19.484;2022-09-30T10:59:26;11.60;99.90
19952;DHT22;10137;49.406;19.484;2022-09-30T11:02:04;11.60;99.90
19952;DHT22;10137;49.406;19.484;2022-09-30T11:04:43;11.70;99.90
19952;DHT22;10137;49.406;19.484;2022-09-30T11:07:16;11.60;99.90
19952;DHT22;10137;49.406;19.484;2022-09-30T11:09:52;11.60;99.90
19952;DHT22;10137;49.406;19.484;2022-09-30T11:12:31;11.50;99.90
19952;DHT22;10137;49.406;19.484;2022-09-30T11:15:09;11.60;99.90
19952;DHT22;10137;49.406;19.484;2022-09-30T11:17:48;11.60;99.90
19952;DHT22;10137;49.406;19.484;2022-09-30T11:20:22;11.60;99.90
19952;DHT22;10137;49.406;19.484;2022-09-30T11:22:57;11.70;99.90
19952;DHT22;10137;49.406;19.484;2022-09-30T11:25:35;11.70;99.90
19952;DHT22;10137;49.406;19.484;2022-09-30T11:28:28;11.70;99.90
19952;DHT22;10137;49.406;19.484;2022-09-30T11:31:10;11.80;99.90
19952;DHT22;10137;49.406;19.484;2022-09-30T11:34:13;11.70;99.90
19952;DHT22;10137;49.406;19.484;2022-09-30T11:36:51;11.90;99.90
19952;DHT22;10137;49.406;19.484;2022-09-30T11:42:26;12.00;99.90
19952;DHT22;10137;49.406;19.484;2022-09-30T11:45:13;12.10;99.90
19952;DHT22;10137;49.406;19.484;2022-09-30T11:48:00;12.10;99.90
19952;DHT22;10137;49.406;19.484;2022-09-30T11:50:46;12.20;99.90
19952;DHT22;10137;49.406;19.484;2022-09-30T11:53:32;12.20;99.90
19952;DHT22;10137;49.406;19.484;2022-09-30T11:56:27;12.20;99.90
19952;DHT22;10137;49.406;19.484;2022-09-30T11:59:01;12.20;99.90
19952;DHT22;10137;49.406;19.484;2022-09-30T12:01:35;12.20;99.90
19952;DHT22;10137;49.406;19.484;2022-09-30T12:04:10;12.30;99.90
19952;DHT22;10137;49.406;19.484;2022-09-30T12:06:59;12.30;99.90
19952;DHT22;10137;49.406;19.484;2022-09-30T12:09:37;12.30;99.90
19952;DHT22;10137;49.406;19.484;2022-09-30T12:12:11;12.30;99.90
19952;DHT22;10137;49.406;19.484;2022-09-30T12:14:43;12.30;99.90
19952;DHT22;10137;49.406;19.484;2022-09-30T12:17:21;12.30;99.90
19952;DHT22;10137;49.406;19.484;2022-09-30T12:19:55;12.30;99.90
19952;DHT22;10137;49.406;19.484;2022-09-30T12:22:28;12.20;99.90
19952;DHT22;10137;49.406;19.484;2022-09-30T12:24:59;12.20;99.90
19952;DHT22;10137;49.406;19.484;2022-09-30T12:27:33;12.30;99.90
19952;DHT22;10137;49.406;19.484;2022-09-30T12:30:12;12.30;99.90
19952;DHT22;10137;49.406;19.484;2022-09-30T12:33:07;12.30;99.90
19952;DHT22;10137;49.406;19.484;2022-09-30T12:36:03;12.40;99.90
19952;DHT22;10137;49.406;19.484;2022-09-30T12:42:04;12.40;99.90
19952;DHT22;10137;49.406;19.484;2022-09-30T12:45:08;12.40;99.90
19952;DHT22;10137;49.406;19.484;2022-09-30T12:47:48;12.50;99.90
19952;DHT22;10137;49.406;19.484;2022-09-30T12:50:19;12.50;99.90
19952;DHT22;10137;49.406;19.484;2022-09-30T12:52:48;12.60;99.90
19952;DHT22;10137;49.406;19.484;2022-09-30T12:55:24;12.60;99.90
19952;DHT22;10137;49.406;19.484;2022-09-30T12:57:58;12.70;99.90
19952;DHT22;10137;49.406;19.484;2022-09-30T13:00:32;12.70;99.90
19952;DHT22;10137;49.406;19.484;2022-09-30T13:03:05;12.80;99.90
19952;DHT22;10137;49.406;19.484;2022-09-30T13:05:52;12.90;99.90
19952;DHT22;10137;49.406;19.484;2022-09-30T13:11:38;12.90;99.90
19952;DHT22;10137;49.406;19.484;2022-09-30T13:14:21;12.90;99.90
19952;DHT22;10137;49.406;19.484;2022-09-30T13:17:25;13.00;99.90
19952;DHT22;10137;49.406;19.484;2022-09-30T13:19:54;13.00;99.90
19952;DHT22;10137;49.406;19.484;2022-09-30T13:22:56;13.00;99.90
19952;DHT22;10137;49.406;19.484;2022-09-30T13:25:25;13.00;99.90
19952;DHT22;10137;49.406;19.484;2022-09-30T13:34:10;13.00;99.90
19952;DHT22;10137;49.406;19.484;2022-09-30T13:36:57;13.00;99.90
19952;DHT22;10137;49.406;19.484;2022-09-30T13:39:27;13.00;99.90
19952;DHT22;10137;49.406;19.484;2022-09-30T13:42:20;13.00;99.90
19952;DHT22;10137;49.406;19.484;2022-09-30T13:45:00;13.10;99.90
19952;DHT22;10137;49.406;19.484;2022-09-30T13:47:32;13.10;99.90
19952;DHT22;10137;49.406;19.484;2022-09-30T13:50:15;13.10;99.90
19952;DHT22;10137;49.406;19.484;2022-09-30T13:52:47;13.20;99.90
19952;DHT22;10137;49.406;19.484;2022-09-30T13:55:22;13.20;99.90
19952;DHT22;10137;49.406;19.484;2022-09-30T13:58:03;13.20;99.90
19952;DHT22;10137;49.406;19.484;2022-09-30T14:00:44;13.20;99.90
19952;DHT22;10137;49.406;19.484;2022-09-30T14:03:37;13.30;99.90
19952;DHT22;10137;49.406;19.484;2022-09-30T14:06:18;13.30;99.90
19952;DHT22;10137;49.406;19.484;2022-09-30T14:12:11;13.30;99.90
19952;DHT22;10137;49.406;19.484;2022-09-30T14:18:08;13.20;99.90
19952;DHT22;10137;49.406;19.484;2022-09-30T14:20:55;13.20;99.90
19952;DHT22;10137;49.406;19.484;2022-09-30T14:23:31;13.20;99.90
19952;DHT22;10137;49.406;19.484;2022-09-30T14:26:08;13.20;99.90
19952;DHT22;10137;49.406;19.484;2022-09-30T14:28:44;13.30;99.90
19952;DHT22;10137;49.406;19.484;2022-09-30T14:31:15;13.30;99.90
19952;DHT22;10137;49.406;19.484;2022-09-30T14:33:45;13.30;99.90
19952;DHT22;10137;49.406;19.484;2022-09-30T14:36:19;13.30;99.90
19952;DHT22;10137;49.406;19.484;2022-09-30T14:38:57;13.30;99.90
19952;DHT22;10137;49.406;19.484;2022-09-30T14:41:27;13.30;99.90
19952;DHT22;10137;49.406;19.484;2022-09-30T14:43:59;13.30;99.90
19952;DHT22;10137;49.406;19.484;2022-09-30T14:46:35;13.30;99.90
19952;DHT22;10137;49.406;19.484;2022-09-30T14:49:08;13.30;99.90
19952;DHT22;10137;49.406;19.484;2022-09-30T14:51:41;13.30;99.90
19952;DHT22;10137;49.406;19.484;2022-09-30T14:54:20;13.30;99.90
19952;DHT22;10137;49.406;19.484;2022-09-30T14:56:49;13.30;99.90
19952;DHT22;10137;49.406;19.484;2022-09-30T14:59:24;13.30;99.90
19952;DHT22;10137;49.406;19.484;2022-09-30T15:01:57;13.40;99.90
19952;DHT22;10137;49.406;19.484;2022-09-30T15:04:29;13.40;99.90
19952;DHT22;10137;49.406;19.484;2022-09-30T15:06:59;13.40;99.90
19952;DHT22;10137;49.406;19.484;2022-09-30T15:09:33;13.40;99.90
19952;DHT22;10137;49.406;19.484;2022-09-30T15:12:05;13.30;99.90
19952;DHT22;10137;49.406;19.484;2022-09-30T15:14:45;13.30;99.90
19952;DHT22;10137;49.406;19.484;2022-09-30T15:17:17;13.30;99.90
19952;DHT22;10137;49.406;19.484;2022-09-30T15:19:46;13.30;99.90
19952;DHT22;10137;49.406;19.484;2022-09-30T15:22:18;13.30;99.90
19952;DHT22;10137;49.406;19.484;2022-09-30T15:24:52;13.30;99.90
19952;DHT22;10137;49.406;19.484;2022-09-30T15:27:22;13.40;99.90
19952;DHT22;10137;49.406;19.484;2022-09-30T15:29:57;13.40;99.90
19952;DHT22;10137;49.406;19.484;2022-09-30T15:32:28;13.40;99.90
19952;DHT22;10137;49.406;19.484;2022-09-30T15:35:04;13.30;99.90
19952;DHT22;10137;49.406;19.484;2022-09-30T15:37:32;13.30;99.90
19952;DHT22;10137;49.406;19.484;2022-09-30T15:40:03;13.30;99.90
19952;DHT22;10137;49.406;19.484;2022-09-30T15:43:00;13.30;99.90
19952;DHT22;10137;49.406;19.484;2022-09-30T15:45:30;13.30;99.90
19952;DHT22;10137;49.406;19.484;2022-09-30T15:48:01;13.30;99.90
19952;DHT22;10137;49.406;19.484;2022-09-30T15:50:37;13.30;99.90
19952;DHT22;10137;49.406;19.484;2022-09-30T15:53:14;13.20;99.90
19952;DHT22;10137;49.406;19.484;2022-09-30T15:55:45;13.20;99.90
19952;DHT22;10137;49.406;19.484;2022-09-30T15:58:41;13.20;99.90
19952;DHT22;10137;49.406;19.484;2022-09-30T16:01:21;13.20;99.90
19952;DHT22;10137;49.406;19.484;2022-09-30T16:03:54;13.20;99.90
19952;DHT22;10137;49.406;19.484;2022-09-30T16:06:26;13.30;99.90
19952;DHT22;10137;49.406;19.484;2022-09-30T16:09:00;13.20;99.90
19952;DHT22;10137;49.406;19.484;2022-09-30T16:11:33;13.20;99.90
19952;DHT22;10137;49.406;19.484;2022-09-30T16:14:10;13.20;99.90
19952;DHT22;10137;49.406;19.484;2022-09-30T16:16:47;13.20;99.90
19952;DHT22;10137;49.406;19.484;2022-09-30T16:19:17;13.20;99.90
19952;DHT22;10137;49.406;19.484;2022-09-30T16:21:46;13.20;99.90
19952;DHT22;10137;49.406;19.484;2022-09-30T16:24:44;13.10;99.90
19952;DHT22;10137;49.406;19.484;2022-09-30T16:27:29;13.10;99.90
19952;DHT22;10137;49.406;19.484;2022-09-30T16:30:00;13.10;99.90
19952;DHT22;10137;49.406;19.484;2022-09-30T16:32:35;13.10;99.90
19952;DHT22;10137;49.406;19.484;2022-09-30T16:35:05;13.00;99.90
19952;DHT22;10137;49.406;19.484;2022-09-30T16:37:33;13.10;99.90
19952;DHT22;10137;49.406;19.484;2022-09-30T16:40:15;13.10;99.90
19952;DHT22;10137;49.406;19.484;2022-09-30T16:42:48;13.10;99.90